createdAt,value
2022-09-20T00:00:07.544Z,12.47
2022-09-20T00:02:35.064Z,12.46
2022-09-20T00:05:02.769Z,12.46
2022-09-20T00:07:31.726Z,12.46
2022-09-20T00:09:59.355Z,12.45
2022-09-20T00:12:27.080Z,12.46
2022-09-20T00:14:54.725Z,12.45
2022-09-20T00:17:22.287Z,12.45
2022-09-20T00:19:49.999Z,12.45
2022-09-20T00:22:17.556Z,12.46
2022-09-20T00:24:49.136Z,12.46
2022-09-20T00:27:16.972Z,12.46
2022-09-20T00:29:44.531Z,12.47
2022-09-20T00:32:12.212Z,12.48
2022-09-20T00:34:57.081Z,12.47
2022-09-20T00:37:27.632Z,12.47
2022-09-20T00:39:56.562Z,12.47
2022-09-20T00:42:27.779Z,12.48
2022-09-20T00:44:57.686Z,12.48
2022-09-20T00:47:33.091Z,12.48
2022-09-20T00:50:03.937Z,12.48
2022-09-20T00:52:32.601Z,12.49
2022-09-20T00:55:01.965Z,12.48
2022-09-20T00:57:35.181Z,12.49
2022-09-20T01:00:06.947Z,12.49
2022-09-20T01:02:36.901Z,12.49
2022-09-20T01:05:04.978Z,12.49
2022-09-20T01:07:34.266Z,12.49
2022-09-20T01:10:03.189Z,12.50
2022-09-20T01:12:34.580Z,12.50
2022-09-20T01:15:03.564Z,12.52
2022-09-20T01:17:32.500Z,12.51
2022-09-20T01:20:10.126Z,12.51
2022-09-20T01:22:42.631Z,12.50
2022-09-20T01:25:15.777Z,12.52
2022-09-20T01:27:46.411Z,12.51
2022-09-20T01:30:16.899Z,12.53
2022-09-20T01:32:48.961Z,12.54
2022-09-20T01:35:19.277Z,12.54
2022-09-20T01:37:51.379Z,12.54
2022-09-20T01:40:23.447Z,12.54
2022-09-20T01:42:56.384Z,12.54
2022-09-20T01:45:28.386Z,12.54
2022-09-20T01:48:02.892Z,12.54
2022-09-20T01:50:34.796Z,12.54
2022-09-20T01:53:35.346Z,12.54
2022-09-20T01:56:20.915Z,12.54
2022-09-20T01:59:23.153Z,12.54
2022-09-20T02:02:07.578Z,12.54
2022-09-20T02:04:51.549Z,12.54
2022-09-20T02:07:32.539Z,12.55
2022-09-20T02:10:26.547Z,12.56
2022-09-20T02:12:55.114Z,12.56
2022-09-20T02:15:41.250Z,12.56
2022-09-20T02:18:19.569Z,12.57
2022-09-20T02:20:53.727Z,12.57
2022-09-20T02:23:34.359Z,12.58
2022-09-20T02:26:06.214Z,12.58
2022-09-20T02:28:41.830Z,12.58
2022-09-20T02:31:15.833Z,12.59
2022-09-20T02:34:08.138Z,12.58
2022-09-20T02:36:41.671Z,12.58
2022-09-20T02:39:12.697Z,12.56
2022-09-20T02:41:50.071Z,12.57
2022-09-20T02:44:22.297Z,12.57
2022-09-20T02:46:55.611Z,12.57
2022-09-20T02:49:29.708Z,12.56
2022-09-20T02:51:58.788Z,12.57
2022-09-20T02:54:33.374Z,12.56
2022-09-20T02:57:04.936Z,12.57
2022-09-20T02:59:38.700Z,12.56
2022-09-20T03:02:10.260Z,12.56
2022-09-20T03:04:46.732Z,12.56
2022-09-20T03:07:19.688Z,12.55
2022-09-20T03:09:52.866Z,12.55
2022-09-20T03:12:27.374Z,12.56
2022-09-20T03:15:00.534Z,12.54
2022-09-20T03:17:31.824Z,12.54
2022-09-20T03:20:09.547Z,12.55
2022-09-20T03:22:46.925Z,12.55
2022-09-20T03:25:28.957Z,12.54
2022-09-20T03:28:04.888Z,12.54
2022-09-20T03:30:40.284Z,12.54
2022-09-20T03:33:13.391Z,12.53
2022-09-20T03:35:53.615Z,12.53
2022-09-20T03:38:39.270Z,12.52
2022-09-20T03:41:24.776Z,12.53
2022-09-20T03:44:06.727Z,12.53
2022-09-20T03:46:38.924Z,12.52
2022-09-20T03:49:20.485Z,12.51
2022-09-20T03:51:57.033Z,12.51
2022-09-20T03:54:35.753Z,12.50
2022-09-20T03:57:14.354Z,12.50
2022-09-20T03:59:57.228Z,12.50
2022-09-20T04:02:31.967Z,12.49
2022-09-20T04:05:01.560Z,12.48
2022-09-20T04:07:36.621Z,12.47
2022-09-20T04:10:13.794Z,12.47
2022-09-20T04:12:46.160Z,12.46
2022-09-20T04:15:32.709Z,12.45
2022-09-20T04:18:03.742Z,12.44
2022-09-20T04:20:34.740Z,12.44
2022-09-20T04:23:10.320Z,12.43
2022-09-20T04:25:43.806Z,12.43
2022-09-20T04:28:15.546Z,12.43
2022-09-20T04:30:44.255Z,12.43
2022-09-20T04:33:16.106Z,12.43
2022-09-20T04:36:03.947Z,12.42
2022-09-20T04:38:35.618Z,12.41
2022-09-20T04:41:16.398Z,12.42
2022-09-20T04:43:57.428Z,12.42
2022-09-20T04:46:44.564Z,12.42
2022-09-20T04:49:31.078Z,12.41
2022-09-20T04:52:13.546Z,12.41
2022-09-20T04:54:59.933Z,12.41
2022-09-20T04:57:42.756Z,12.41
2022-09-20T05:00:12.165Z,12.41
2022-09-20T05:02:55.642Z,12.41
2022-09-20T05:05:39.283Z,12.41
2022-09-20T05:08:37.001Z,12.42
2022-09-20T05:11:18.317Z,12.40
2022-09-20T05:13:55.716Z,12.41
2022-09-20T05:16:27.525Z,12.40
2022-09-20T05:19:10.467Z,12.40
2022-09-20T05:21:46.498Z,12.41
2022-09-20T05:24:31.685Z,12.39
2022-09-20T05:27:10.483Z,12.40
2022-09-20T05:29:43.983Z,12.41
2022-09-20T05:32:17.171Z,12.41
2022-09-20T05:34:47.436Z,12.40
2022-09-20T05:37:20.988Z,12.41
2022-09-20T05:39:52.593Z,12.41
2022-09-20T05:42:24.041Z,12.41
2022-09-20T05:44:57.586Z,12.40
2022-09-20T05:47:28.777Z,12.40
2022-09-20T05:50:00.924Z,12.41
2022-09-20T05:52:38.575Z,12.41
2022-09-20T05:55:15.232Z,12.41
2022-09-20T05:57:49.538Z,12.40
2022-09-20T06:00:19.211Z,12.40
2022-09-20T06:02:54.008Z,12.40
2022-09-20T06:05:29.708Z,12.40
2022-09-20T06:08:09.757Z,12.41
2022-09-20T06:10:47.250Z,12.40
2022-09-20T06:13:34.955Z,12.40
2022-09-20T06:16:04.422Z,12.41
2022-09-20T06:18:34.415Z,12.41
2022-09-20T06:21:08.637Z,12.41
2022-09-20T06:23:36.824Z,12.42
2022-09-20T06:26:07.800Z,12.40
2022-09-20T06:28:40.441Z,12.43
2022-09-20T06:31:10.168Z,12.43
2022-09-20T06:33:42.719Z,12.44
2022-09-20T06:36:29.724Z,12.45
2022-09-20T06:39:21.510Z,12.46
2022-09-20T06:41:49.576Z,12.47
2022-09-20T06:44:19.913Z,12.48
2022-09-20T06:46:47.654Z,12.53
2022-09-20T06:49:15.187Z,12.57
2022-09-20T06:51:43.506Z,12.63
2022-09-20T06:54:16.239Z,12.70
2022-09-20T06:56:45.152Z,12.82
2022-09-20T06:59:12.801Z,12.97
2022-09-20T07:01:42.205Z,13.16
2022-09-20T07:04:10.430Z,13.39
2022-09-20T07:06:38.126Z,13.61
2022-09-20T07:09:06.413Z,13.82
2022-09-20T07:11:35.138Z,14.02
2022-09-20T07:14:02.951Z,14.23
2022-09-20T07:16:30.741Z,14.44
2022-09-20T07:19:00.459Z,14.67
2022-09-20T07:21:28.073Z,14.93
2022-09-20T07:23:55.689Z,15.20
2022-09-20T07:26:26.459Z,15.48
2022-09-20T07:28:54.657Z,15.76
2022-09-20T07:31:23.837Z,16.02
2022-09-20T07:33:51.558Z,16.24
2022-09-20T07:38:50.636Z,16.56
2022-09-20T07:41:19.059Z,16.66
2022-09-20T07:43:47.423Z,16.74
2022-09-20T07:46:15.062Z,16.78
2022-09-20T07:48:42.873Z,16.82
2022-09-20T07:51:11.836Z,16.86
2022-09-20T07:53:39.718Z,16.91
2022-09-20T07:56:10.932Z,16.99
2022-09-20T07:58:38.907Z,17.11
2022-09-20T08:01:07.456Z,17.21
2022-09-20T08:03:35.756Z,17.28
2022-09-20T08:06:04.554Z,17.36
2022-09-20T08:08:33.032Z,17.42
2022-09-20T08:11:05.420Z,17.47
2022-09-20T08:16:24.334Z,17.51
2022-09-20T08:18:53.927Z,17.50
2022-09-20T08:21:21.541Z,17.48
2022-09-20T08:23:49.439Z,17.45
2022-09-20T08:26:18.371Z,17.42
2022-09-20T08:28:49.945Z,17.36
2022-09-20T08:31:19.386Z,17.32
2022-09-20T08:33:47.973Z,17.26
2022-09-20T08:36:16.455Z,17.21
2022-09-20T08:41:33.148Z,17.08
2022-09-20T08:44:04.683Z,17.00
2022-09-20T08:46:35.418Z,16.93
2022-09-20T08:49:05.512Z,16.86
2022-09-20T08:51:34.478Z,16.78
2022-09-20T08:54:03.128Z,16.70
2022-09-20T08:56:32.609Z,16.63
2022-09-20T08:59:00.868Z,16.55
2022-09-20T09:01:32.309Z,16.48
2022-09-20T09:04:03.216Z,16.43
2022-09-20T09:06:31.822Z,16.38
2022-09-20T09:09:00.432Z,16.36
2022-09-20T09:11:28.288Z,16.34
2022-09-20T09:13:57.949Z,16.34
2022-09-20T09:16:33.639Z,16.35
2022-09-20T09:19:33.259Z,16.35
2022-09-20T09:22:03.202Z,16.38
2022-09-20T09:27:06.876Z,16.43
2022-09-20T09:29:35.074Z,16.45
2022-09-20T09:32:19.761Z,16.48
2022-09-20T09:34:49.117Z,16.49
2022-09-20T09:37:28.456Z,16.48
2022-09-20T09:40:12.802Z,16.49
2022-09-20T09:42:50.136Z,16.51
2022-09-20T09:45:27.164Z,16.55
2022-09-20T09:47:54.900Z,16.59
2022-09-20T09:50:25.184Z,16.62
2022-09-20T09:52:59.744Z,16.66
2022-09-20T09:55:32.701Z,16.69
2022-09-20T09:58:03.948Z,16.72
2022-09-20T10:00:33.117Z,16.75
2022-09-20T10:03:06.588Z,16.78
2022-09-20T10:05:39.045Z,16.80
2022-09-20T10:08:15.449Z,16.83
2022-09-20T10:10:51.050Z,16.86
2022-09-20T10:13:24.216Z,16.87
2022-09-20T10:15:54.444Z,16.89
2022-09-20T10:18:38.051Z,16.91
2022-09-20T10:21:14.721Z,16.91
2022-09-20T10:24:04.690Z,16.92
2022-09-20T10:26:39.911Z,16.90
2022-09-20T10:29:15.667Z,16.87
2022-09-20T10:31:49.058Z,16.85
2022-09-20T10:34:27.830Z,16.81
2022-09-20T10:37:01.591Z,16.76
2022-09-20T10:39:35.266Z,16.72
2022-09-20T10:42:27.095Z,16.63
2022-09-20T10:45:05.656Z,16.58
2022-09-20T10:47:35.252Z,16.53
2022-09-20T10:50:08.710Z,16.48
2022-09-20T10:53:03.218Z,16.41
2022-09-20T10:55:36.516Z,16.35
2022-09-20T10:58:20.807Z,16.29
2022-09-20T11:00:56.265Z,16.22
2022-09-20T11:03:38.543Z,16.18
2022-09-20T11:06:17.274Z,16.12
2022-09-20T11:09:03.698Z,16.07
2022-09-20T11:11:39.071Z,16.02
2022-09-20T11:17:43.347Z,15.96
2022-09-20T11:20:16.587Z,15.94
2022-09-20T11:22:46.168Z,15.93
2022-09-20T11:25:20.867Z,15.91
2022-09-20T11:27:52.907Z,15.91
2022-09-20T11:30:21.721Z,15.91
2022-09-20T11:32:53.005Z,15.90
2022-09-20T11:35:30.207Z,15.91
2022-09-20T11:38:04.656Z,15.92
2022-09-20T11:40:35.908Z,15.92
2022-09-20T11:43:06.471Z,15.96
2022-09-20T11:45:39.584Z,15.99
2022-09-20T11:48:11.298Z,16.03
2022-09-20T11:50:57.080Z,16.08
2022-09-20T11:53:36.990Z,16.15
2022-09-20T11:56:08.717Z,16.23
2022-09-20T11:58:46.439Z,16.30
2022-09-20T12:01:18.258Z,16.38
2022-09-20T12:04:04.286Z,16.45
2022-09-20T12:06:54.725Z,16.54
2022-09-20T12:09:26.958Z,16.61
2022-09-20T12:12:06.402Z,16.66
2022-09-20T12:14:37.548Z,16.72
2022-09-20T12:17:07.556Z,16.78
2022-09-20T12:19:40.348Z,16.85
2022-09-20T12:22:19.534Z,16.92
2022-09-20T12:25:35.007Z,16.97
2022-09-20T12:28:20.000Z,17.02
2022-09-20T12:31:20.149Z,17.09
2022-09-20T12:38:04.580Z,17.10
2022-09-20T12:41:02.747Z,17.09
2022-09-20T12:43:44.896Z,17.08
2022-09-20T12:46:24.321Z,17.07
2022-09-20T12:48:53.971Z,17.02
2022-09-20T12:54:31.000Z,16.96
2022-09-20T12:57:17.962Z,16.92
2022-09-20T12:59:58.440Z,16.88
2022-09-20T13:02:48.922Z,16.85
2022-09-20T13:05:38.298Z,16.82
2022-09-20T13:08:15.255Z,16.81
2022-09-20T13:10:46.257Z,16.80
2022-09-20T13:13:17.330Z,16.80
2022-09-20T13:15:52.433Z,16.80
2022-09-20T13:18:20.494Z,16.82
2022-09-20T13:20:48.222Z,16.83
2022-09-20T13:23:20.294Z,16.85
2022-09-20T13:25:48.718Z,16.86
2022-09-20T13:28:28.828Z,16.88
2022-09-20T13:31:15.077Z,16.90
2022-09-20T13:33:44.339Z,16.94
2022-09-20T13:36:11.927Z,16.97
2022-09-20T13:38:39.742Z,17.01
2022-09-20T13:41:10.471Z,17.06
2022-09-20T13:43:39.254Z,17.12
2022-09-20T13:46:12.224Z,17.15
2022-09-20T13:48:40.766Z,17.19
2022-09-20T13:51:18.150Z,17.23
2022-09-20T13:53:46.762Z,17.27
2022-09-20T13:56:19.488Z,17.30
2022-09-20T13:58:47.237Z,17.34
2022-09-20T14:01:27.933Z,17.39
2022-09-20T14:03:59.014Z,17.43
2022-09-20T14:06:29.603Z,17.47
2022-09-20T14:08:57.700Z,17.51
2022-09-20T14:11:27.113Z,17.52
2022-09-20T14:13:56.598Z,17.55
2022-09-20T14:16:25.691Z,17.58
2022-09-20T14:18:53.311Z,17.61
2022-09-20T14:21:22.953Z,17.62
2022-09-20T14:23:52.809Z,17.63
2022-09-20T14:26:25.718Z,17.64
2022-09-20T14:28:53.510Z,17.63
2022-09-20T14:31:23.106Z,17.64
2022-09-20T14:33:55.384Z,17.63
2022-09-20T14:36:24.157Z,17.64
2022-09-20T14:38:54.382Z,17.64
2022-09-20T14:41:26.660Z,17.65
2022-09-20T14:43:55.692Z,17.65
2022-09-20T14:46:30.498Z,17.66
2022-09-20T14:49:13.030Z,17.66
2022-09-20T14:51:40.629Z,17.66
2022-09-20T14:54:27.084Z,17.68
2022-09-20T14:56:57.561Z,17.68
2022-09-20T14:59:26.118Z,17.68
2022-09-20T15:01:58.376Z,17.70
2022-09-20T15:04:26.887Z,17.72
2022-09-20T15:06:55.376Z,17.71
2022-09-20T15:09:30.952Z,17.72
2022-09-20T15:12:02.641Z,17.73
2022-09-20T15:14:33.813Z,17.75
2022-09-20T15:17:04.938Z,17.74
2022-09-20T15:19:32.612Z,17.73
2022-09-20T15:22:00.326Z,17.73
2022-09-20T15:24:29.285Z,17.74
2022-09-20T15:26:57.382Z,17.73
2022-09-20T15:29:25.995Z,17.74
2022-09-20T15:31:53.760Z,17.73
2022-09-20T15:34:21.402Z,17.73
2022-09-20T15:36:50.718Z,17.72
2022-09-20T15:39:18.362Z,17.72
2022-09-20T15:41:47.411Z,17.70
2022-09-20T15:44:16.484Z,17.69
2022-09-20T15:46:44.122Z,17.69
2022-09-20T15:49:12.873Z,17.67
2022-09-20T15:51:40.510Z,17.67
2022-09-20T15:54:09.460Z,17.65
2022-09-20T15:56:38.178Z,17.63
2022-09-20T15:59:13.235Z,17.62
2022-09-20T16:01:41.687Z,17.60
2022-09-20T16:04:10.329Z,17.59
2022-09-20T16:06:38.404Z,17.57
2022-09-20T16:09:06.895Z,17.54
2022-09-20T16:11:34.809Z,17.52
2022-09-20T16:14:03.767Z,17.51
2022-09-20T16:16:38.901Z,17.46
2022-09-20T16:19:21.214Z,17.44
2022-09-20T16:21:55.085Z,17.42
2022-09-20T16:24:25.777Z,17.38
2022-09-20T16:26:53.691Z,17.33
2022-09-20T16:29:25.624Z,17.31
2022-09-20T16:31:55.664Z,17.28
2022-09-20T16:34:29.594Z,17.23
2022-09-20T16:36:58.574Z,17.20
2022-09-20T16:39:27.610Z,17.16
2022-09-20T16:41:57.112Z,17.14
2022-09-20T16:44:25.142Z,17.09
2022-09-20T16:46:54.215Z,17.06
2022-09-20T16:49:22.005Z,17.01
2022-09-20T16:51:49.731Z,16.97
2022-09-20T16:54:18.248Z,16.95
2022-09-20T16:56:47.283Z,16.92
2022-09-20T16:59:19.480Z,16.87
2022-09-20T17:01:49.183Z,16.85
2022-09-20T17:04:20.262Z,16.82
2022-09-20T17:06:48.456Z,16.79
2022-09-20T17:09:16.686Z,16.75
2022-09-20T17:11:45.892Z,16.73
2022-09-20T17:14:13.994Z,16.69
2022-09-20T17:16:42.379Z,16.67
2022-09-20T17:19:11.111Z,16.64
2022-09-20T17:21:43.420Z,16.61
2022-09-20T17:24:12.299Z,16.57
2022-09-20T17:26:44.026Z,16.55
2022-09-20T17:29:13.861Z,16.52
2022-09-20T17:31:43.279Z,16.50
2022-09-20T17:34:11.906Z,16.47
2022-09-20T17:36:41.858Z,16.43
2022-09-20T17:39:10.946Z,16.40
2022-09-20T17:41:38.857Z,16.36
2022-09-20T17:44:08.341Z,16.31
2022-09-20T17:46:37.106Z,16.27
2022-09-20T17:49:06.865Z,16.23
2022-09-20T17:51:35.544Z,16.18
2022-09-20T17:54:04.635Z,16.14
2022-09-20T17:56:32.529Z,16.10
2022-09-20T17:59:00.709Z,16.05
2022-09-20T18:01:29.086Z,16.00
2022-09-20T18:03:58.302Z,15.97
2022-09-20T18:06:27.134Z,15.94
2022-09-20T18:08:55.449Z,15.92
2022-09-20T18:11:27.909Z,15.89
2022-09-20T18:13:56.278Z,15.86
2022-09-20T18:16:24.018Z,15.85
2022-09-20T18:18:52.038Z,15.83
2022-09-20T18:21:20.411Z,15.81
2022-09-20T18:23:48.586Z,15.79
2022-09-20T18:26:25.900Z,15.78
2022-09-20T18:28:58.901Z,15.76
2022-09-20T18:31:27.856Z,15.73
2022-09-20T18:33:56.899Z,15.70
2022-09-20T18:36:27.313Z,15.68
2022-09-20T18:38:55.701Z,15.66
2022-09-20T18:41:25.595Z,15.63
2022-09-20T18:43:53.888Z,15.59
2022-09-20T18:46:24.814Z,15.56
2022-09-20T18:48:53.045Z,15.52
2022-09-20T18:51:21.013Z,15.49
2022-09-20T18:53:49.030Z,15.46
2022-09-20T18:56:22.809Z,15.42
2022-09-20T18:58:51.279Z,15.40
2022-09-20T19:01:30.937Z,15.37
2022-09-20T19:04:05.710Z,15.34
2022-09-20T19:06:37.205Z,15.32
2022-09-20T19:09:09.319Z,15.30
2022-09-20T19:11:40.248Z,15.28
2022-09-20T19:14:13.338Z,15.25
2022-09-20T19:16:43.802Z,15.23
2022-09-20T19:19:30.715Z,15.21
2022-09-20T19:21:59.972Z,15.17
2022-09-20T19:24:56.683Z,15.13
2022-09-20T19:27:25.742Z,15.09
2022-09-20T19:29:53.768Z,15.07
2022-09-20T19:32:26.138Z,15.04
2022-09-20T19:34:55.066Z,15.00
2022-09-20T19:37:29.625Z,14.97
2022-09-20T19:40:02.439Z,14.94
2022-09-20T19:42:37.135Z,14.92
2022-09-20T19:45:11.271Z,14.89
2022-09-20T19:47:46.523Z,14.86
2022-09-20T19:50:25.277Z,14.83
2022-09-20T19:52:53.709Z,14.81
2022-09-20T19:55:23.333Z,14.77
2022-09-20T19:57:51.395Z,14.75
2022-09-20T20:00:20.992Z,14.72
2022-09-20T20:02:50.746Z,14.69
2022-09-20T20:05:19.378Z,14.67
2022-09-20T20:07:50.938Z,14.64
2022-09-20T20:10:25.336Z,14.60
2022-09-20T20:12:56.637Z,14.58
2022-09-20T20:15:32.318Z,14.55
2022-09-20T20:18:03.311Z,14.52
2022-09-20T20:20:34.204Z,14.47
2022-09-20T20:23:21.145Z,14.45
2022-09-20T20:25:51.263Z,14.39
2022-09-20T20:28:18.882Z,14.36
2022-09-20T20:30:46.595Z,14.32
2022-09-20T20:33:16.561Z,14.29
2022-09-20T20:35:44.167Z,14.26
2022-09-20T20:38:12.640Z,14.22
2022-09-20T20:40:40.693Z,14.19
2022-09-20T20:43:09.431Z,14.15
2022-09-20T20:45:38.718Z,14.13
2022-09-20T20:48:06.368Z,14.11
2022-09-20T20:50:35.429Z,14.08
2022-09-20T20:53:03.073Z,14.06
2022-09-20T20:55:31.252Z,14.04
2022-09-20T20:57:59.945Z,14.00
2022-09-20T21:00:28.165Z,13.99
2022-09-20T21:02:59.933Z,13.97
2022-09-20T21:05:28.279Z,13.94
2022-09-20T21:07:58.162Z,13.92
2022-09-20T21:10:26.200Z,13.90
2022-09-20T21:12:55.400Z,13.88
2022-09-20T21:15:23.101Z,13.86
2022-09-20T21:17:54.194Z,13.83
2022-09-20T21:20:22.512Z,13.80
2022-09-20T21:22:50.259Z,13.79
2022-09-20T21:25:19.323Z,13.77
2022-09-20T21:27:47.126Z,13.76
2022-09-20T21:30:15.244Z,13.74
2022-09-20T21:32:43.002Z,13.73
2022-09-20T21:35:11.494Z,13.72
2022-09-20T21:37:39.440Z,13.70
2022-09-20T21:40:07.644Z,13.70
2022-09-20T21:42:36.847Z,13.68
2022-09-20T21:45:08.552Z,13.67
2022-09-20T21:47:36.262Z,13.67
2022-09-20T21:50:06.192Z,13.65
2022-09-20T21:52:34.093Z,13.65
2022-09-20T21:55:01.795Z,13.63
2022-09-20T21:57:30.099Z,13.61
2022-09-20T21:59:59.111Z,13.61
2022-09-20T22:02:26.908Z,13.60
2022-09-20T22:04:54.723Z,13.58
2022-09-20T22:07:23.226Z,13.57
2022-09-20T22:09:50.919Z,13.55
2022-09-20T22:12:18.582Z,13.52
2022-09-20T22:14:46.225Z,13.49
2022-09-20T22:17:15.216Z,13.48
2022-09-20T22:19:44.511Z,13.45
2022-09-20T22:22:12.163Z,13.44
2022-09-20T22:24:39.810Z,13.41
2022-09-20T22:27:07.451Z,13.40
2022-09-20T22:29:35.053Z,13.37
2022-09-20T22:32:02.984Z,13.35
2022-09-20T22:34:32.005Z,13.33
2022-09-20T22:36:59.807Z,13.30
2022-09-20T22:39:27.390Z,13.27
2022-09-20T22:41:55.006Z,13.24
2022-09-20T22:44:22.541Z,13.22
2022-09-20T22:46:50.756Z,13.20
2022-09-20T22:49:18.332Z,13.17
2022-09-20T22:51:47.307Z,13.14
2022-09-20T22:54:14.843Z,13.11
2022-09-20T22:56:42.493Z,13.08
2022-09-20T22:59:11.336Z,13.06
2022-09-20T23:01:41.113Z,13.02
2022-09-20T23:04:10.050Z,12.98
2022-09-20T23:06:39.303Z,12.95
2022-09-20T23:09:09.408Z,12.92
2022-09-20T23:11:39.346Z,12.89
2022-09-20T23:14:07.274Z,12.86
2022-09-20T23:16:35.922Z,12.84
2022-09-20T23:19:04.900Z,12.81
2022-09-20T23:21:32.757Z,12.79
2022-09-20T23:24:01.096Z,12.78
2022-09-20T23:26:30.773Z,12.75
2022-09-20T23:28:59.556Z,12.73
2022-09-20T23:31:27.603Z,12.70
2022-09-20T23:33:56.531Z,12.68
2022-09-20T23:36:25.143Z,12.65
2022-09-20T23:38:53.385Z,12.64
2022-09-20T23:41:22.051Z,12.61
2022-09-20T23:43:51.131Z,12.58
2022-09-20T23:46:19.740Z,12.56
2022-09-20T23:48:47.405Z,12.51
2022-09-20T23:51:15.982Z,12.49
2022-09-20T23:53:44.049Z,12.45
2022-09-20T23:56:12.136Z,12.43
2022-09-20T23:58:40.406Z,12.40
